createdAt,value
2023-01-29T00:02:07.987Z,71.90
2023-01-29T00:04:35.901Z,70.40
2023-01-29T00:07:03.699Z,71.40
2023-01-29T00:09:31.938Z,71.70
2023-01-29T00:12:01.192Z,70.80
2023-01-29T00:14:29.139Z,70.50
2023-01-29T00:16:56.943Z,70.90
2023-01-29T00:19:24.788Z,71.50
2023-01-29T00:21:52.581Z,70.50
2023-01-29T00:24:20.446Z,70.80
2023-01-29T00:26:50.002Z,70.10
2023-01-29T00:29:19.514Z,69.70
2023-01-29T00:31:47.434Z,70.30
2023-01-29T00:34:17.075Z,69.90
2023-01-29T00:36:45.576Z,70.10
2023-01-29T00:39:13.810Z,69.70
2023-01-29T00:41:59.363Z,69.50
2023-01-29T00:44:46.252Z,70.10
2023-01-29T00:47:27.985Z,69.60
2023-01-29T00:49:55.830Z,70.00
2023-01-29T00:52:26.929Z,69.50
2023-01-29T00:54:55.897Z,70.00
2023-01-29T00:57:24.048Z,70.30
2023-01-29T00:59:53.220Z,70.30
2023-01-29T01:02:39.136Z,70.60
2023-01-29T01:05:10.200Z,70.70
2023-01-29T01:07:38.003Z,70.50
2023-01-29T01:10:24.323Z,70.60
2023-01-29T01:12:55.935Z,69.70
2023-01-29T01:15:26.827Z,69.40
2023-01-29T01:17:56.839Z,70.00
2023-01-29T01:20:25.101Z,69.80
2023-01-29T01:22:54.676Z,69.60
2023-01-29T01:25:22.905Z,69.80
2023-01-29T01:27:53.799Z,69.60
2023-01-29T01:30:22.155Z,69.60
2023-01-29T01:32:51.840Z,69.70
2023-01-29T01:35:19.901Z,69.70
2023-01-29T01:37:47.737Z,69.60
2023-01-29T01:40:20.153Z,69.40
2023-01-29T01:42:50.052Z,69.50
2023-01-29T01:45:22.379Z,69.80
2023-01-29T01:47:55.274Z,70.20
2023-01-29T01:50:27.927Z,70.20
2023-01-29T01:53:00.092Z,70.50
2023-01-29T01:55:31.071Z,70.50
2023-01-29T01:58:03.890Z,70.00
2023-01-29T02:00:31.739Z,70.20
2023-01-29T02:03:19.756Z,70.60
2023-01-29T02:06:08.192Z,70.40
2023-01-29T02:09:02.287Z,69.80
2023-01-29T02:11:31.153Z,69.60
2023-01-29T02:13:59.160Z,69.80
2023-01-29T02:16:27.236Z,70.10
2023-01-29T02:18:57.971Z,70.00
2023-01-29T02:21:48.992Z,69.60
2023-01-29T02:24:34.830Z,69.60
2023-01-29T02:27:08.988Z,69.80
2023-01-29T02:29:54.018Z,69.80
2023-01-29T02:32:28.730Z,69.80
2023-01-29T02:35:24.943Z,69.70
2023-01-29T02:38:02.597Z,69.50
2023-01-29T02:40:33.363Z,69.50
2023-01-29T02:43:09.623Z,69.10
2023-01-29T02:45:48.281Z,69.40
2023-01-29T02:48:20.507Z,69.20
2023-01-29T02:50:54.237Z,69.70
2023-01-29T02:53:28.319Z,69.60
2023-01-29T02:56:00.036Z,69.40
2023-01-29T02:58:32.719Z,69.20
2023-01-29T03:01:05.909Z,68.30
2023-01-29T03:03:40.353Z,69.30
2023-01-29T03:06:19.240Z,69.30
2023-01-29T03:08:51.813Z,69.10
2023-01-29T03:11:19.679Z,68.70
2023-01-29T03:13:52.876Z,68.70
2023-01-29T03:16:25.825Z,69.40
2023-01-29T03:18:58.483Z,69.10
2023-01-29T03:21:49.221Z,69.60
2023-01-29T03:24:37.615Z,69.20
2023-01-29T03:27:27.832Z,69.00
2023-01-29T03:30:16.300Z,69.00
2023-01-29T03:33:11.351Z,68.90
2023-01-29T03:35:48.236Z,68.70
2023-01-29T03:38:16.413Z,68.30
2023-01-29T03:40:50.081Z,69.10
2023-01-29T03:43:29.896Z,68.40
2023-01-29T03:46:05.104Z,68.50
2023-01-29T03:48:37.630Z,69.00
2023-01-29T03:51:17.497Z,68.30
2023-01-29T03:53:52.405Z,68.70
2023-01-29T03:56:35.101Z,69.00
2023-01-29T03:59:05.850Z,68.30
2023-01-29T04:01:58.110Z,68.40
2023-01-29T04:04:31.162Z,68.10
2023-01-29T04:07:11.864Z,68.70
2023-01-29T04:09:44.383Z,69.10
2023-01-29T04:12:16.807Z,68.90
2023-01-29T04:14:46.289Z,68.10
2023-01-29T04:17:17.934Z,68.40
2023-01-29T04:19:55.021Z,68.40
2023-01-29T04:22:26.550Z,68.50
2023-01-29T04:24:54.781Z,68.50
2023-01-29T04:27:31.565Z,68.60
2023-01-29T04:30:13.234Z,68.40
2023-01-29T04:32:53.963Z,68.80
2023-01-29T04:35:32.524Z,68.70
2023-01-29T04:38:11.147Z,68.20
2023-01-29T04:40:50.623Z,67.90
2023-01-29T04:43:26.783Z,68.20
2023-01-29T04:46:10.408Z,68.30
2023-01-29T04:48:46.900Z,68.10
2023-01-29T04:51:21.916Z,68.40
2023-01-29T04:53:54.154Z,68.40
2023-01-29T04:56:27.781Z,68.30
2023-01-29T04:59:00.402Z,68.10
2023-01-29T05:01:33.006Z,68.00
2023-01-29T05:04:03.843Z,68.20
2023-01-29T05:06:33.719Z,68.00
2023-01-29T05:09:10.551Z,68.00
2023-01-29T05:11:38.563Z,67.90
2023-01-29T05:14:09.827Z,67.80
2023-01-29T05:16:43.483Z,67.90
2023-01-29T05:19:12.552Z,68.00
2023-01-29T05:21:44.394Z,67.80
2023-01-29T05:24:14.076Z,67.90
2023-01-29T05:27:01.367Z,68.10
2023-01-29T05:29:30.211Z,68.10
2023-01-29T05:31:58.083Z,67.30
2023-01-29T05:34:26.020Z,68.00
2023-01-29T05:36:55.154Z,67.80
2023-01-29T05:39:23.016Z,67.80
2023-01-29T05:41:50.913Z,67.40
2023-01-29T05:44:18.714Z,67.50
2023-01-29T05:46:46.554Z,67.30
2023-01-29T05:49:14.463Z,67.00
2023-01-29T05:51:42.280Z,67.90
2023-01-29T05:54:13.621Z,67.30
2023-01-29T05:56:41.684Z,66.50
2023-01-29T05:59:09.490Z,66.70
2023-01-29T06:01:37.577Z,65.70
2023-01-29T06:04:05.580Z,66.10
2023-01-29T06:06:33.406Z,66.60
2023-01-29T06:09:01.290Z,67.00
2023-01-29T06:11:30.496Z,66.00
2023-01-29T06:13:58.636Z,65.90
2023-01-29T06:16:26.519Z,65.70
2023-01-29T06:18:54.351Z,66.70
2023-01-29T06:21:22.332Z,66.40
2023-01-29T06:23:50.159Z,66.20
2023-01-29T06:26:17.947Z,66.40
2023-01-29T06:28:49.979Z,67.20
2023-01-29T06:31:37.859Z,67.50
2023-01-29T06:34:06.595Z,67.80
2023-01-29T06:36:34.671Z,67.00
2023-01-29T06:39:02.769Z,67.00
2023-01-29T06:41:30.676Z,67.10
2023-01-29T06:43:59.842Z,67.70
2023-01-29T06:46:27.647Z,66.70
2023-01-29T06:48:55.493Z,65.80
2023-01-29T06:51:23.297Z,64.70
2023-01-29T06:53:51.118Z,65.50
2023-01-29T06:56:18.915Z,66.20
2023-01-29T06:58:46.762Z,65.40
2023-01-29T07:01:34.287Z,67.00
2023-01-29T07:04:03.608Z,83.90
2023-01-29T07:06:32.208Z,78.60
2023-01-29T07:09:00.031Z,78.50
2023-01-29T07:11:27.819Z,78.00
2023-01-29T07:13:55.602Z,76.10
2023-01-29T07:16:25.013Z,74.20
2023-01-29T07:18:53.055Z,71.00
2023-01-29T07:21:20.936Z,73.40
2023-01-29T07:23:48.723Z,73.80
2023-01-29T07:26:17.056Z,75.50
2023-01-29T07:28:44.846Z,75.70
2023-01-29T07:31:14.386Z,74.80
2023-01-29T07:33:44.188Z,64.60
2023-01-29T07:36:13.244Z,64.10
2023-01-29T07:38:41.133Z,63.80
2023-01-29T07:41:10.096Z,62.60
2023-01-29T07:43:37.904Z,63.20
2023-01-29T07:46:06.158Z,62.20
2023-01-29T07:48:34.399Z,62.70
2023-01-29T07:51:03.599Z,62.40
2023-01-29T07:53:31.881Z,62.70
2023-01-29T07:55:59.697Z,62.40
2023-01-29T07:58:27.562Z,62.60
2023-01-29T08:00:55.461Z,62.30
2023-01-29T08:03:23.293Z,61.80
2023-01-29T08:05:51.133Z,62.00
2023-01-29T08:08:20.344Z,63.00
2023-01-29T08:10:48.120Z,62.50
2023-01-29T08:13:16.093Z,62.50
2023-01-29T08:15:45.202Z,63.10
2023-01-29T08:18:13.672Z,62.60
2023-01-29T08:20:41.531Z,61.80
2023-01-29T08:23:13.470Z,61.50
2023-01-29T08:25:43.007Z,61.70
2023-01-29T08:28:12.239Z,61.80
2023-01-29T08:30:40.420Z,61.90
2023-01-29T08:33:08.315Z,61.60
2023-01-29T08:35:36.117Z,65.30
2023-01-29T08:38:05.491Z,66.20
2023-01-29T08:40:35.390Z,67.90
2023-01-29T08:43:08.751Z,65.60
2023-01-29T08:45:38.776Z,67.90
2023-01-29T08:48:07.429Z,69.50
2023-01-29T08:50:35.481Z,62.70
2023-01-29T08:53:07.438Z,61.60
2023-01-29T08:55:37.720Z,60.90
2023-01-29T08:58:07.579Z,61.10
2023-01-29T09:00:35.841Z,60.10
2023-01-29T09:03:03.817Z,60.00
2023-01-29T09:05:32.194Z,59.80
2023-01-29T09:08:00.357Z,59.90
2023-01-29T09:10:28.155Z,59.90
2023-01-29T09:12:56.046Z,59.80
2023-01-29T09:15:25.541Z,59.80
2023-01-29T09:17:53.457Z,59.80
2023-01-29T09:20:21.469Z,59.90
2023-01-29T09:22:50.545Z,59.90
2023-01-29T09:25:18.886Z,59.90
2023-01-29T09:27:46.899Z,59.90
2023-01-29T09:30:15.379Z,60.00
2023-01-29T09:32:53.854Z,60.10
2023-01-29T09:35:22.441Z,60.20
2023-01-29T09:37:50.299Z,60.30
2023-01-29T09:40:25.675Z,60.30
2023-01-29T09:42:58.449Z,60.30
2023-01-29T09:45:29.229Z,60.30
2023-01-29T09:48:00.969Z,60.40
2023-01-29T09:50:38.237Z,60.40
2023-01-29T09:53:15.988Z,60.40
2023-01-29T09:55:49.242Z,60.40
2023-01-29T09:58:22.410Z,60.50
2023-01-29T10:00:59.752Z,60.50
2023-01-29T10:03:55.965Z,60.50
2023-01-29T10:06:32.952Z,61.40
2023-01-29T10:09:42.652Z,60.60
2023-01-29T10:12:28.822Z,60.70
2023-01-29T10:15:03.671Z,60.80
2023-01-29T10:17:51.267Z,60.90
2023-01-29T10:20:48.827Z,60.80
2023-01-29T10:23:22.912Z,60.50
2023-01-29T10:25:51.065Z,60.20
2023-01-29T10:28:21.624Z,60.00
2023-01-29T10:30:51.724Z,59.90
2023-01-29T10:33:24.188Z,59.80
2023-01-29T10:35:57.810Z,59.70
2023-01-29T10:38:36.135Z,59.60
2023-01-29T10:41:17.420Z,59.60
2023-01-29T10:43:55.442Z,59.60
2023-01-29T10:46:32.606Z,59.50
2023-01-29T10:49:09.455Z,59.50
2023-01-29T10:51:56.078Z,59.50
2023-01-29T10:54:48.272Z,59.40
2023-01-29T10:57:28.601Z,59.30
2023-01-29T11:00:07.181Z,59.40
2023-01-29T11:02:35.292Z,59.20
2023-01-29T11:05:03.102Z,59.20
2023-01-29T11:07:32.316Z,59.10
2023-01-29T11:10:08.520Z,59.20
2023-01-29T11:12:38.757Z,59.40
2023-01-29T11:15:14.801Z,59.50
2023-01-29T11:18:02.358Z,59.60
2023-01-29T11:20:31.464Z,59.80
2023-01-29T11:23:00.575Z,60.60
2023-01-29T11:25:29.753Z,59.90
2023-01-29T11:28:00.482Z,60.00
2023-01-29T11:30:31.010Z,60.10
2023-01-29T11:33:09.062Z,61.00
2023-01-29T11:35:37.769Z,60.40
2023-01-29T11:38:20.669Z,60.70
2023-01-29T11:40:48.899Z,60.90
2023-01-29T11:43:28.885Z,61.10
2023-01-29T11:46:00.453Z,61.20
2023-01-29T11:48:42.007Z,61.40
2023-01-29T11:51:13.008Z,61.60
2023-01-29T11:53:44.922Z,61.70
2023-01-29T11:56:23.491Z,61.80
2023-01-29T11:58:53.767Z,61.90
2023-01-29T12:01:32.783Z,62.00
2023-01-29T12:04:01.962Z,62.00
2023-01-29T12:06:35.128Z,62.20
2023-01-29T12:09:11.745Z,62.20
2023-01-29T12:11:39.558Z,62.30
2023-01-29T12:14:27.443Z,62.30
2023-01-29T12:17:00.372Z,62.30
2023-01-29T12:19:35.263Z,62.30
2023-01-29T12:22:06.709Z,62.40
2023-01-29T12:24:42.126Z,62.40
2023-01-29T12:27:16.679Z,62.40
2023-01-29T12:29:50.725Z,62.50
2023-01-29T12:32:29.173Z,62.60
2023-01-29T12:35:02.681Z,62.60
2023-01-29T12:37:40.010Z,62.60
2023-01-29T12:40:15.739Z,62.70
2023-01-29T12:42:49.112Z,62.70
2023-01-29T12:45:19.554Z,62.80
2023-01-29T12:47:51.865Z,62.70
2023-01-29T12:50:23.587Z,62.70
2023-01-29T12:52:54.915Z,62.70
2023-01-29T12:55:28.874Z,62.80
2023-01-29T12:57:59.601Z,62.80
2023-01-29T13:00:30.651Z,62.80
2023-01-29T13:03:03.869Z,62.80
2023-01-29T13:05:39.971Z,62.80
2023-01-29T13:08:10.871Z,62.90
2023-01-29T13:10:44.599Z,62.90
2023-01-29T13:13:16.832Z,62.90
2023-01-29T13:15:45.438Z,63.00
2023-01-29T13:18:32.799Z,63.00
2023-01-29T13:21:01.872Z,63.00
2023-01-29T13:23:35.134Z,63.10
2023-01-29T13:26:05.611Z,63.10
2023-01-29T13:28:33.795Z,63.10
2023-01-29T13:31:22.420Z,63.10
2023-01-29T13:33:56.991Z,63.10
2023-01-29T13:36:28.985Z,63.20
2023-01-29T13:39:02.232Z,63.30
2023-01-29T13:41:37.933Z,63.30
2023-01-29T13:44:09.597Z,63.30
2023-01-29T13:46:42.382Z,63.30
2023-01-29T13:49:28.595Z,63.30
2023-01-29T13:51:56.682Z,63.30
2023-01-29T13:54:27.345Z,63.30
2023-01-29T13:57:01.759Z,63.40
2023-01-29T13:59:52.962Z,63.40
2023-01-29T14:02:24.702Z,63.40
2023-01-29T14:04:52.687Z,63.50
2023-01-29T14:07:40.333Z,63.50
2023-01-29T14:10:15.866Z,63.50
2023-01-29T14:12:50.617Z,63.60
2023-01-29T14:15:30.164Z,63.60
2023-01-29T14:18:01.630Z,63.60
2023-01-29T14:20:46.507Z,63.70
2023-01-29T14:23:28.298Z,63.70
2023-01-29T14:25:56.592Z,63.70
2023-01-29T14:28:29.421Z,63.70
2023-01-29T14:30:57.659Z,63.70
2023-01-29T14:33:29.462Z,63.70
2023-01-29T14:35:59.765Z,63.70
2023-01-29T14:38:30.025Z,63.70
2023-01-29T14:41:09.436Z,63.70
2023-01-29T14:43:38.562Z,63.70
2023-01-29T14:46:44.786Z,63.80
2023-01-29T14:49:12.867Z,64.20
2023-01-29T14:51:45.252Z,63.80
2023-01-29T14:54:26.204Z,63.80
2023-01-29T14:57:00.255Z,63.70
2023-01-29T14:59:37.212Z,63.70
2023-01-29T15:02:15.255Z,63.50
2023-01-29T15:04:49.623Z,63.50
2023-01-29T15:07:27.874Z,63.50
2023-01-29T15:10:20.967Z,63.50
2023-01-29T15:12:53.398Z,63.50
2023-01-29T15:15:32.498Z,63.50
2023-01-29T15:18:05.673Z,63.50
2023-01-29T15:20:35.791Z,63.50
2023-01-29T15:23:06.065Z,63.50
2023-01-29T15:25:37.483Z,63.50
2023-01-29T15:28:10.091Z,63.50
2023-01-29T15:30:39.484Z,63.50
2023-01-29T15:33:11.397Z,63.50
2023-01-29T15:35:41.127Z,63.50
2023-01-29T15:38:17.078Z,63.50
2023-01-29T15:40:53.171Z,63.50
2023-01-29T15:43:22.568Z,63.40
2023-01-29T15:45:52.848Z,63.30
2023-01-29T15:48:28.919Z,63.30
2023-01-29T15:50:57.425Z,63.30
2023-01-29T15:53:31.875Z,63.40
2023-01-29T15:56:00.104Z,63.40
2023-01-29T15:58:32.073Z,63.50
2023-01-29T16:01:02.765Z,63.50
2023-01-29T16:03:34.177Z,63.50
2023-01-29T16:06:02.805Z,63.50
2023-01-29T16:08:31.039Z,63.50
2023-01-29T16:11:01.603Z,63.50
2023-01-29T16:13:31.346Z,63.50
2023-01-29T16:16:02.443Z,63.60
2023-01-29T16:18:33.006Z,63.60
2023-01-29T16:21:05.407Z,63.60
2023-01-29T16:23:37.631Z,63.60
2023-01-29T16:26:09.336Z,63.50
2023-01-29T16:28:41.565Z,63.50
2023-01-29T16:31:12.176Z,63.60
2023-01-29T16:33:42.436Z,63.60
2023-01-29T16:36:17.549Z,63.60
2023-01-29T16:38:48.480Z,63.60
2023-01-29T16:41:30.806Z,63.60
2023-01-29T16:44:01.320Z,63.50
2023-01-29T16:46:36.899Z,63.50
2023-01-29T16:49:47.598Z,63.50
2023-01-29T16:52:19.634Z,63.50
2023-01-29T16:54:47.522Z,63.50
2023-01-29T16:57:18.887Z,63.50
2023-01-29T16:59:47.132Z,63.60
2023-01-29T17:02:23.351Z,63.60
2023-01-29T17:04:54.887Z,63.60
2023-01-29T17:07:23.162Z,64.30
2023-01-29T17:09:54.129Z,63.60
2023-01-29T17:12:24.892Z,63.70
2023-01-29T17:14:57.645Z,63.70
2023-01-29T17:17:31.138Z,63.80
2023-01-29T17:20:03.468Z,63.80
2023-01-29T17:22:31.250Z,63.80
2023-01-29T17:24:59.053Z,63.80
2023-01-29T17:27:26.916Z,63.90
2023-01-29T17:29:54.733Z,63.90
2023-01-29T17:32:22.523Z,64.00
2023-01-29T17:34:51.223Z,64.00
2023-01-29T17:37:20.363Z,64.00
2023-01-29T17:39:50.389Z,64.00
2023-01-29T17:42:18.389Z,64.00
2023-01-29T17:44:46.339Z,64.00
2023-01-29T17:47:15.322Z,64.00
2023-01-29T17:49:43.903Z,64.00
2023-01-29T17:52:11.775Z,64.00
2023-01-29T17:54:40.928Z,64.00
2023-01-29T17:57:11.460Z,64.00
2023-01-29T17:59:39.298Z,64.00
2023-01-29T18:02:08.519Z,64.00
2023-01-29T18:04:56.312Z,64.00
2023-01-29T18:07:24.114Z,64.00
2023-01-29T18:09:53.217Z,64.00
2023-01-29T18:12:20.991Z,64.00
2023-01-29T18:14:48.801Z,64.10
2023-01-29T18:17:22.081Z,64.00
2023-01-29T18:19:50.307Z,64.40
2023-01-29T18:22:18.109Z,64.40
2023-01-29T18:24:45.934Z,64.20
2023-01-29T18:27:15.091Z,64.20
2023-01-29T18:29:43.000Z,64.10
2023-01-29T18:32:11.663Z,64.90
2023-01-29T18:34:41.112Z,64.10
2023-01-29T18:37:10.898Z,64.10
2023-01-29T18:39:39.977Z,64.10
2023-01-29T18:42:07.831Z,64.10
2023-01-29T18:44:37.511Z,64.10
2023-01-29T18:47:05.868Z,64.20
2023-01-29T18:49:33.668Z,64.20
2023-01-29T18:52:01.460Z,64.10
2023-01-29T18:54:29.433Z,64.00
2023-01-29T18:57:13.156Z,64.10
2023-01-29T18:59:45.562Z,64.00
2023-01-29T19:02:15.235Z,64.10
2023-01-29T19:04:43.553Z,64.10
2023-01-29T19:07:12.450Z,64.20
2023-01-29T19:09:42.035Z,64.10
2023-01-29T19:12:09.919Z,64.10
2023-01-29T19:14:38.318Z,64.10
2023-01-29T19:17:07.494Z,64.20
2023-01-29T19:19:38.619Z,64.20
2023-01-29T19:22:06.487Z,64.20
2023-01-29T19:24:39.059Z,64.20
2023-01-29T19:27:07.601Z,64.20
2023-01-29T19:29:35.677Z,64.10
2023-01-29T19:32:03.487Z,64.10
2023-01-29T19:34:32.651Z,64.10
2023-01-29T19:37:00.687Z,64.10
2023-01-29T19:39:33.460Z,64.10
2023-01-29T19:42:01.646Z,64.10
2023-01-29T19:44:29.695Z,64.10
2023-01-29T19:46:57.486Z,64.10
2023-01-29T19:49:26.311Z,64.10
2023-01-29T19:51:58.673Z,64.10
2023-01-29T19:54:27.677Z,64.10
2023-01-29T19:56:55.566Z,64.10
2023-01-29T19:59:23.764Z,64.10
2023-01-29T20:01:51.672Z,64.10
2023-01-29T20:04:19.504Z,64.10
2023-01-29T20:06:47.309Z,64.00
2023-01-29T20:09:17.547Z,64.10
2023-01-29T20:11:45.312Z,64.10
2023-01-29T20:14:13.126Z,64.10
2023-01-29T20:16:40.974Z,64.00
2023-01-29T20:19:14.321Z,64.10
2023-01-29T20:21:45.409Z,64.10
2023-01-29T20:24:14.212Z,64.10
2023-01-29T20:26:43.417Z,64.10
2023-01-29T20:29:11.414Z,64.10
2023-01-29T20:31:39.230Z,64.10
2023-01-29T20:34:07.082Z,64.10
2023-01-29T20:36:34.880Z,64.10
2023-01-29T20:39:02.683Z,64.10
2023-01-29T20:41:30.475Z,64.10
2023-01-29T20:43:59.632Z,64.00
2023-01-29T20:46:28.015Z,64.10
2023-01-29T20:48:56.588Z,64.10
2023-01-29T20:51:24.369Z,64.10
2023-01-29T20:53:52.267Z,64.10
2023-01-29T20:56:34.290Z,64.10
2023-01-29T20:59:07.049Z,64.10
2023-01-29T21:01:34.830Z,64.10
2023-01-29T21:04:02.911Z,64.10
2023-01-29T21:06:30.745Z,64.20
2023-01-29T21:08:58.616Z,64.20
2023-01-29T21:11:26.467Z,64.20
2023-01-29T21:13:57.519Z,64.10
2023-01-29T21:16:26.935Z,64.10
2023-01-29T21:18:56.787Z,64.10
2023-01-29T21:21:26.435Z,64.00
2023-01-29T21:23:54.580Z,64.00
2023-01-29T21:26:23.479Z,64.10
2023-01-29T21:28:51.346Z,64.10
2023-01-29T21:31:19.136Z,64.10
2023-01-29T21:33:48.248Z,64.10
2023-01-29T21:36:16.060Z,64.00
2023-01-29T21:38:43.898Z,64.10
2023-01-29T21:41:11.867Z,64.20
2023-01-29T21:43:38.931Z,64.10
2023-01-29T21:46:11.459Z,64.20
2023-01-29T21:48:40.198Z,64.30
2023-01-29T21:51:09.693Z,64.50
2023-01-29T21:53:37.626Z,64.60
2023-01-29T21:56:06.677Z,64.70
2023-01-29T21:58:34.832Z,64.70
2023-01-29T22:01:36.649Z,64.80
2023-01-29T22:03:50.449Z,64.70
2023-01-29T22:06:19.673Z,64.80
2023-01-29T22:08:49.216Z,64.80
2023-01-29T22:11:17.313Z,64.80
2023-01-29T22:13:45.089Z,64.70
2023-01-29T22:16:12.915Z,64.70
2023-01-29T22:18:40.737Z,64.70
2023-01-29T22:21:08.620Z,64.70
2023-01-29T22:23:37.930Z,64.70
2023-01-29T22:26:06.689Z,64.70
2023-01-29T22:28:34.575Z,64.70
2023-01-29T22:31:02.992Z,64.60
2023-01-29T22:33:30.999Z,64.70
2023-01-29T22:35:58.995Z,64.70
2023-01-29T22:38:27.205Z,64.60
2023-01-29T22:40:57.581Z,64.70
2023-01-29T22:43:26.184Z,64.60
2023-01-29T22:45:54.029Z,64.60
2023-01-29T22:48:23.574Z,65.40
2023-01-29T22:51:09.713Z,64.60
2023-01-29T22:53:38.115Z,64.60
2023-01-29T22:56:09.014Z,64.50
2023-01-29T22:58:37.990Z,64.90
2023-01-29T23:01:06.225Z,64.50
2023-01-29T23:03:34.486Z,64.50
2023-01-29T23:06:02.505Z,64.50
2023-01-29T23:08:30.364Z,64.50
2023-01-29T23:11:13.613Z,64.50
2023-01-29T23:13:44.047Z,64.50
2023-01-29T23:16:12.139Z,64.50
2023-01-29T23:18:40.473Z,64.50
2023-01-29T23:21:08.727Z,64.50
2023-01-29T23:23:38.353Z,64.50
2023-01-29T23:26:25.288Z,64.40
2023-01-29T23:28:54.436Z,64.50
2023-01-29T23:31:22.273Z,64.50
2023-01-29T23:33:50.410Z,64.50
2023-01-29T23:36:18.689Z,64.50
2023-01-29T23:38:46.465Z,64.40
2023-01-29T23:41:15.170Z,64.50
2023-01-29T23:43:43.248Z,65.20
2023-01-29T23:46:12.416Z,64.50
2023-01-29T23:48:40.241Z,64.50
2023-01-29T23:51:08.068Z,64.50
2023-01-29T23:53:35.871Z,64.50
2023-01-29T23:56:05.786Z,64.50
2023-01-29T23:58:34.083Z,64.50
